Weather History for Centralia, IL

Change the Weather History Date:

Tuesday, October 23, 2012

  Actual Average (KSLO) Record (KSLO)
Temperature  
Mean Temperature 69 °F -  
Max Temperature 76 °F 65 °F 85 °F (1963)
Min Temperature 62 °F 43 °F 30 °F (1969)
Cooling Degree Days 4    
Growing Degree Days 19 (Base 50)    
Moisture  
Dew Point 56 °F    
Average Humidity 66    
Maximum Humidity 93    
Minimum Humidity 56    
Precipitation  
Precipitation 0.19 in - - ()
Sea Level Pressure  
Sea Level Pressure 29.97 in    
Wind  
Wind Speed 10 mph (South)    
Max Wind Speed 15 mph    
Max Gust Speed 20 mph    
Visibility 10 miles    
Events Rain , Thunderstorm    
Averages and records for this station are not official NWS values.
T = Trace of Precipitation, MM = Missing Value Source: NWS Daily Summary

Daily Weather History Graph

Daily Weather History Graph

Search for Another Location

Airport:

Trip Planner

Search our weather history database for the weather conditions in past years. The results will help you decide how hot, cold, wet, or windy it might be!

Date:

Astronomy

Oct. 23, 2012 Rise Set
Actual Time 7:13 AM CDT 6:06 PM CDT
Civil Twilight 6:46 AM CDT 6:33 PM CDT
Nautical Twilight 6:15 AM CDT 7:04 PM CDT
Astronomical Twilight 5:45 AM CDT 7:35 PM CDT
Moon 2:46 PM CDT (10/23) 1:10 AM CDT (10/23)
Length of Visible Light 11h 46m
Length of Day
10h 52m
Waxing Gibbous, 67% of the Moon is Illuminated
Oct 23
Waxing Gibbous
Oct 29
Full
Nov 6
Last Quarter
Nov 13
New
Nov 20
First Quarter

Hourly Weather History & Observations

Time (CDT) Temp. Dew Point Humidity Pressure Visibility Wind Dir Wind Speed Gust Speed Precip Events Conditions
12:15 AM 67.1 °F 52.2 °F 59% 29.96 in 10.0 mi South 10.4 mph - N/A   Clear
12:35 AM 67.1 °F 52.0 °F 58% 29.95 in 10.0 mi South 10.4 mph - N/A   Clear
12:55 AM 66.2 °F 51.8 °F 60% 29.95 in 10.0 mi South 10.4 mph - N/A   Clear
1:15 AM 66.4 °F 52.0 °F 60% 29.95 in 10.0 mi South 10.4 mph - N/A   Clear
1:35 AM 66.2 °F 52.2 °F 61% 29.96 in 10.0 mi South 10.4 mph - N/A   Clear
1:55 AM 66.2 °F 51.8 °F 60% 29.95 in 10.0 mi South 10.4 mph - N/A   Clear
2:15 AM 66.4 °F 51.8 °F 59% 29.95 in 10.0 mi South 10.4 mph - N/A   Clear
2:35 AM 66.2 °F 51.8 °F 60% 29.95 in 10.0 mi South 11.5 mph - N/A   Clear
2:55 AM 65.7 °F 51.4 °F 60% 29.95 in 10.0 mi South 10.4 mph - N/A   Clear
3:15 AM 65.3 °F 51.4 °F 61% 29.95 in 10.0 mi South 9.2 mph - N/A   Clear
3:35 AM 65.5 °F 51.3 °F 60% 29.96 in 10.0 mi South 9.2 mph - N/A   Clear
3:55 AM 65.5 °F 51.8 °F 61% 29.97 in 10.0 mi South 8.1 mph - N/A   Scattered Clouds
4:15 AM 65.5 °F 52.2 °F 62% 29.98 in 10.0 mi South 5.8 mph - N/A   Overcast
4:35 AM 66.2 °F 51.8 °F 60% 29.98 in 10.0 mi South 9.2 mph - N/A   Overcast
4:55 AM 67.5 °F 51.3 °F 56% 29.98 in 10.0 mi South 10.4 mph - N/A   Overcast
5:15 AM 67.3 °F 51.6 °F 57% 29.98 in 10.0 mi South 8.1 mph - N/A   Overcast
5:35 AM 67.6 °F 51.3 °F 56% 29.98 in 10.0 mi South 9.2 mph - N/A   Overcast
5:55 AM 67.1 °F 51.3 °F 57% 29.98 in 10.0 mi South 10.4 mph 16.1 mph N/A   Overcast
6:15 AM 66.2 °F 51.8 °F 60% 29.97 in 10.0 mi South 11.5 mph - N/A   Overcast
6:35 AM 66.7 °F 51.3 °F 57% 29.98 in 10.0 mi South 11.5 mph - N/A   Overcast
6:55 AM 66.4 °F 51.3 °F 58% 29.98 in 10.0 mi South 10.4 mph - N/A   Overcast
7:15 AM 66.9 °F 51.3 °F 57% 29.98 in 10.0 mi South 9.2 mph - N/A   Overcast
7:35 AM 65.8 °F 51.8 °F 60% 29.99 in 10.0 mi South 10.4 mph - N/A   Overcast
7:55 AM 65.7 °F 52.0 °F 61% 29.99 in 10.0 mi South 11.5 mph - N/A   Mostly Cloudy
8:15 AM 65.7 °F 52.0 °F 61% 30.00 in 10.0 mi South 10.4 mph - N/A   Mostly Cloudy
8:35 AM 66.4 °F 52.5 °F 61% 30.00 in 10.0 mi South 12.7 mph - N/A   Overcast
8:55 AM 67.3 °F 52.9 °F 60% 30.00 in 10.0 mi South 12.7 mph - N/A   Mostly Cloudy
9:15 AM 66.9 °F 53.2 °F 61% 30.01 in 10.0 mi South 11.5 mph - N/A   Mostly Cloudy
9:35 AM 68.5 °F 54.3 °F 60% 30.01 in 10.0 mi SSW 13.8 mph 17.3 mph N/A   Mostly Cloudy
9:55 AM 69.8 °F 54.9 °F 59% 30.01 in 10.0 mi South 12.7 mph - N/A   Scattered Clouds
10:15 AM 69.1 °F 54.7 °F 60% 30.01 in 10.0 mi SSW 10.4 mph - N/A   Scattered Clouds
10:35 AM 69.8 °F 55.4 °F 60% 30.01 in 10.0 mi South 8.1 mph - N/A   Scattered Clouds
10:55 AM 69.1 °F 55.6 °F 62% 30.01 in 10.0 mi South 11.5 mph - N/A   Scattered Clouds
11:15 AM 68.9 °F 57.0 °F 66% 30.01 in 10.0 mi South 9.2 mph - N/A Rain Light Rain
11:35 AM 67.5 °F 57.7 °F 71% 30.00 in 10.0 mi South 8.1 mph - N/A Rain Light Rain
11:55 AM 66.2 °F 58.1 °F 75% 30.00 in 10.0 mi South 10.4 mph - 0.01 in Rain Light Rain
12:15 PM 65.8 °F 58.6 °F 78% 30.00 in 10.0 mi South 9.2 mph - N/A Rain Light Rain
12:35 PM 65.1 °F 58.5 °F 79% 30.02 in 10.0 mi SSW 9.2 mph - N/A Rain , Thunderstorm Rain
12:55 PM 63.1 °F 58.6 °F 85% 30.02 in 4.0 mi SSW 10.4 mph - 0.04 in Rain , Thunderstorm Thunderstorms and Rain
1:15 PM 62.2 °F 59.7 °F 91% 29.98 in 4.0 mi SSE 15.0 mph - 0.11 in Rain , Thunderstorm Thunderstorms and Rain
1:35 PM 63.5 °F 61.2 °F 92% 29.97 in 7.0 mi SSE 5.8 mph - 0.14 in Rain , Thunderstorm Light Thunderstorms and Rain
1:55 PM 63.7 °F 61.5 °F 93% 29.96 in 10.0 mi ESE 4.6 mph - 0.14 in Rain Light Rain
2:15 PM 64.4 °F 61.2 °F 89% 29.95 in 10.0 mi ESE 4.6 mph - N/A   Overcast
2:35 PM 64.9 °F 61.0 °F 87% 29.95 in 10.0 mi East 4.6 mph - N/A   Overcast
2:55 PM 65.5 °F 61.5 °F 87% 29.94 in 10.0 mi ESE 8.1 mph - N/A Thunderstorm Overcast
3:15 PM 68.7 °F 62.2 °F 80% 29.92 in 10.0 mi ESE 12.7 mph - N/A   Scattered Clouds
3:35 PM 69.8 °F 62.1 °F 76% 29.92 in 10.0 mi ESE 10.4 mph - N/A   Clear
3:55 PM 72.9 °F 63.3 °F 72% 29.92 in 10.0 mi SE 9.2 mph - N/A   Clear
4:15 PM 74.3 °F 63.5 °F 69% 29.92 in 10.0 mi SE 6.9 mph - N/A   Clear
4:35 PM 75.2 °F 62.1 °F 64% 29.91 in 10.0 mi South 12.7 mph 18.4 mph N/A   Scattered Clouds
4:55 PM 76.1 °F 61.2 °F 60% 29.91 in 10.0 mi South 12.7 mph 17.3 mph N/A   Mostly Cloudy
5:15 PM 74.7 °F 60.6 °F 61% 29.92 in 10.0 mi South 9.2 mph - N/A   Mostly Cloudy
5:35 PM 75.4 °F 58.6 °F 56% 29.92 in 10.0 mi South 11.5 mph 19.6 mph N/A   Scattered Clouds
5:55 PM 73.4 °F 58.5 °F 59% 29.92 in 10.0 mi South 9.2 mph - N/A   Clear
6:15 PM 70.2 °F 59.0 °F 68% 29.93 in 10.0 mi SSE 4.6 mph - N/A   Clear
6:35 PM 70.0 °F 59.9 °F 70% 29.93 in 10.0 mi SSE 8.1 mph - N/A   Clear
6:55 PM 70.0 °F 59.5 °F 69% 29.94 in 7.0 mi SSE 6.9 mph - N/A   Clear
7:15 PM 70.0 °F 59.4 °F 69% 29.94 in 10.0 mi South 9.2 mph - N/A   Clear
7:35 PM 70.3 °F 59.2 °F 68% 29.94 in 10.0 mi SSE 8.1 mph - N/A   Clear
7:55 PM 69.1 °F 59.0 °F 70% 29.94 in 10.0 mi South 9.2 mph - N/A   Clear
8:15 PM 69.3 °F 59.0 °F 70% 29.95 in 10.0 mi SSE 10.4 mph - N/A   Clear
8:35 PM 69.6 °F 58.6 °F 68% 29.95 in 10.0 mi South 10.4 mph - N/A   Clear
8:55 PM 70.0 °F 58.5 °F 67% 29.95 in 10.0 mi South 10.4 mph - N/A   Clear
9:15 PM 69.1 °F 58.5 °F 69% 29.96 in 10.0 mi SSE 10.4 mph - N/A   Clear
9:35 PM 68.9 °F 58.3 °F 69% 29.96 in 10.0 mi South 10.4 mph - N/A   Clear
9:55 PM 69.3 °F 58.1 °F 68% 29.97 in 10.0 mi South 10.4 mph - N/A   Clear
10:15 PM 69.1 °F 57.6 °F 67% 29.97 in 10.0 mi South 12.7 mph - N/A   Clear
10:35 PM 69.1 °F 57.2 °F 66% 29.97 in 10.0 mi South 11.5 mph - N/A   Clear
10:55 PM 68.0 °F 57.2 °F 68% 29.98 in 10.0 mi South 11.5 mph 16.1 mph N/A   Clear
11:15 PM 67.8 °F 57.2 °F 69% 29.98 in 10.0 mi South 10.4 mph - N/A   Clear
11:35 PM 67.5 °F 56.8 °F 69% 29.98 in 10.0 mi South 9.2 mph - N/A   Clear
11:55 PM 67.1 °F 56.5 °F 69% 29.98 in 10.0 mi South 11.5 mph - N/A   Clear